createdAt,value
2023-03-15T00:00:57.011Z,2.92
2023-03-15T00:03:26.692Z,2.89
2023-03-15T00:05:53.545Z,3.03
2023-03-15T00:08:21.812Z,3.13
2023-03-15T00:10:49.099Z,3.14
2023-03-15T00:13:17.258Z,3.13
2023-03-15T00:15:50.238Z,2.94
2023-03-15T00:18:18.879Z,3.05
2023-03-15T00:20:47.383Z,2.85
2023-03-15T00:23:15.325Z,2.53
2023-03-15T00:25:46.440Z,2.44
2023-03-15T00:28:13.864Z,2.41
2023-03-15T00:30:40.682Z,2.55
2023-03-15T00:33:07.756Z,2.79
2023-03-15T00:35:39.115Z,2.88
2023-03-15T00:38:05.747Z,2.86
2023-03-15T00:40:32.465Z,2.74
2023-03-15T00:42:59.109Z,2.69
2023-03-15T00:45:25.767Z,2.58
2023-03-15T00:47:53.986Z,2.44
2023-03-15T00:50:22.430Z,1.96
2023-03-15T00:52:49.361Z,1.45
2023-03-15T00:55:18.684Z,1.24
2023-03-15T00:57:46.805Z,1.08
2023-03-15T01:00:20.903Z,0.97
2023-03-15T01:02:47.740Z,0.80
2023-03-15T01:05:14.822Z,0.74
2023-03-15T01:07:41.697Z,0.71
2023-03-15T01:10:08.613Z,0.68
2023-03-15T01:12:35.692Z,0.82
2023-03-15T01:15:04.915Z,0.95
2023-03-15T01:17:31.732Z,0.89
2023-03-15T01:19:59.545Z,0.76
2023-03-15T01:22:27.414Z,0.98
2023-03-15T01:24:54.044Z,0.96
2023-03-15T01:27:20.567Z,0.69
2023-03-15T01:29:47.477Z,0.57
2023-03-15T01:32:14.971Z,0.58
2023-03-15T01:34:43.210Z,0.62
2023-03-15T01:37:14.635Z,0.63
2023-03-15T01:39:44.195Z,0.49
2023-03-15T01:42:11.219Z,0.61
2023-03-15T01:44:49.579Z,0.93
2023-03-15T01:47:17.061Z,1.19
2023-03-15T01:49:47.595Z,1.18
2023-03-15T01:52:21.368Z,1.36
2023-03-15T01:54:56.870Z,1.15
2023-03-15T01:57:27.002Z,1.41
2023-03-15T01:59:59.981Z,1.31
2023-03-15T02:02:26.780Z,1.14
2023-03-15T02:04:59.005Z,1.42
2023-03-15T02:07:29.095Z,1.60
2023-03-15T02:10:04.595Z,1.56
2023-03-15T02:12:38.466Z,1.61
2023-03-15T02:15:06.398Z,1.52
2023-03-15T02:17:36.740Z,1.63
2023-03-15T02:20:09.313Z,1.50
2023-03-15T02:22:47.181Z,1.49
2023-03-15T02:25:26.372Z,1.37
2023-03-15T02:27:54.567Z,1.27
2023-03-15T02:30:21.171Z,1.39
2023-03-15T02:32:48.542Z,1.51
2023-03-15T02:35:28.406Z,1.44
2023-03-15T02:37:55.193Z,1.52
2023-03-15T02:40:24.374Z,1.44
2023-03-15T02:42:58.918Z,1.32
2023-03-15T02:45:27.189Z,1.29
2023-03-15T02:47:53.972Z,1.18
2023-03-15T02:50:21.010Z,0.96
2023-03-15T02:52:47.841Z,0.81
2023-03-15T02:55:14.675Z,0.65
2023-03-15T02:57:41.214Z,0.57
2023-03-15T03:00:14.356Z,0.54
2023-03-15T03:02:47.229Z,0.42
2023-03-15T03:05:14.717Z,0.34
2023-03-15T03:07:44.662Z,0.34
2023-03-15T03:10:15.482Z,0.35
2023-03-15T03:12:53.351Z,0.35
2023-03-15T03:15:25.589Z,0.32
2023-03-15T03:17:52.219Z,0.40
2023-03-15T03:20:19.157Z,0.40
2023-03-15T03:22:46.934Z,0.44
2023-03-15T03:25:13.790Z,0.47
2023-03-15T03:27:41.100Z,0.48
2023-03-15T03:30:14.362Z,0.40
2023-03-15T03:32:47.343Z,0.39
2023-03-15T03:35:16.098Z,0.32
2023-03-15T03:37:42.949Z,0.34
2023-03-15T03:40:14.960Z,0.37
2023-03-15T03:42:42.279Z,0.33
2023-03-15T03:45:09.537Z,0.32
2023-03-15T03:47:41.103Z,0.31
2023-03-15T03:50:10.198Z,0.31
2023-03-15T03:52:36.976Z,0.26
2023-03-15T03:55:07.402Z,0.22
2023-03-15T03:57:34.273Z,0.28
2023-03-15T04:00:01.032Z,0.23
2023-03-15T04:02:30.661Z,0.19
2023-03-15T04:05:01.547Z,0.13
2023-03-15T04:07:28.274Z,0.06
2023-03-15T04:09:55.436Z,0.12
2023-03-15T04:12:22.144Z,0.11
2023-03-15T04:14:49.006Z,0.10
2023-03-15T04:17:17.811Z,0.12
2023-03-15T04:19:47.168Z,0.02
2023-03-15T04:22:16.539Z,0.03
2023-03-15T04:25:07.419Z,-0.05
2023-03-15T04:27:58.833Z,-0.08
2023-03-15T04:30:45.375Z,-0.05
2023-03-15T04:33:24.516Z,-0.03
2023-03-15T04:36:21.750Z,0.02
2023-03-15T04:39:14.506Z,0.07
2023-03-15T04:41:51.579Z,-0.04
2023-03-15T04:44:47.551Z,-0.14
2023-03-15T04:47:32.720Z,-0.12
2023-03-15T04:50:23.822Z,-0.08
2023-03-15T04:53:00.321Z,-0.07
2023-03-15T04:56:06.142Z,-0.16
2023-03-15T04:59:05.474Z,-0.18
2023-03-15T05:01:35.025Z,-0.19
2023-03-15T05:04:13.668Z,-0.19
2023-03-15T05:07:03.393Z,-0.15
2023-03-15T05:09:49.080Z,-0.17
2023-03-15T05:12:45.101Z,-0.05
2023-03-15T05:15:25.943Z,-0.05
2023-03-15T05:18:04.023Z,-0.16
2023-03-15T05:20:49.985Z,-0.11
2023-03-15T05:23:30.135Z,-0.21
2023-03-15T05:26:03.687Z,-0.14
2023-03-15T05:28:49.203Z,-0.06
2023-03-15T05:31:36.951Z,0.00
2023-03-15T05:34:25.286Z,0.03
2023-03-15T05:37:12.300Z,0.14
2023-03-15T05:40:00.346Z,0.17
2023-03-15T05:42:52.708Z,0.06
2023-03-15T05:45:35.321Z,0.23
2023-03-15T05:48:20.556Z,0.17
2023-03-15T05:50:57.056Z,0.07
2023-03-15T05:53:34.380Z,0.02
2023-03-15T05:56:12.270Z,-0.03
2023-03-15T05:58:57.738Z,0.06
2023-03-15T06:01:47.006Z,0.05
2023-03-15T06:04:20.555Z,0.06
2023-03-15T06:06:47.242Z,0.20
2023-03-15T06:09:14.318Z,0.12
2023-03-15T06:11:41.064Z,0.13
2023-03-15T06:14:11.584Z,0.23
2023-03-15T06:16:52.854Z,0.12
2023-03-15T06:19:21.343Z,0.10
2023-03-15T06:21:48.918Z,0.28
2023-03-15T06:24:25.163Z,0.42
2023-03-15T06:26:54.756Z,0.25
2023-03-15T06:29:23.118Z,0.23
2023-03-15T06:31:52.896Z,0.17
2023-03-15T06:34:21.055Z,0.22
2023-03-15T06:36:49.616Z,0.40
2023-03-15T06:39:16.874Z,0.28
2023-03-15T06:41:44.044Z,0.25
2023-03-15T06:44:16.529Z,0.29
2023-03-15T06:46:43.791Z,0.52
2023-03-15T06:49:11.414Z,0.55
2023-03-15T06:51:38.581Z,0.65
2023-03-15T06:54:05.470Z,0.83
2023-03-15T06:56:37.219Z,0.91
2023-03-15T06:59:04.639Z,1.09
2023-03-15T07:01:31.323Z,1.57
2023-03-15T07:03:57.907Z,1.78
2023-03-15T07:06:24.652Z,2.00
2023-03-15T07:08:51.200Z,2.11
2023-03-15T07:11:18.039Z,1.81
2023-03-15T07:13:44.644Z,1.75
2023-03-15T07:16:11.241Z,1.46
2023-03-15T07:18:37.864Z,1.62
2023-03-15T07:21:06.042Z,1.60
2023-03-15T07:23:32.606Z,1.78
2023-03-15T07:25:59.733Z,1.65
2023-03-15T07:28:28.123Z,1.80
2023-03-15T07:30:55.541Z,1.85
2023-03-15T07:33:23.024Z,1.98
2023-03-15T07:35:53.731Z,1.99
2023-03-15T07:38:26.040Z,2.08
2023-03-15T07:40:52.992Z,2.19
2023-03-15T07:43:20.311Z,2.28
2023-03-15T07:45:50.897Z,2.24
2023-03-15T07:48:17.656Z,2.15
2023-03-15T07:50:45.573Z,2.25
2023-03-15T07:53:12.109Z,2.39
2023-03-15T07:55:38.735Z,2.54
2023-03-15T07:58:05.966Z,2.77
2023-03-15T08:00:32.863Z,2.57
2023-03-15T08:02:59.706Z,2.55
2023-03-15T08:05:28.950Z,2.46
2023-03-15T08:07:56.789Z,2.27
2023-03-15T08:10:23.575Z,2.02
2023-03-15T08:12:50.246Z,2.07
2023-03-15T08:15:17.119Z,2.31
2023-03-15T08:17:44.143Z,2.22
2023-03-15T08:20:11.739Z,2.33
2023-03-15T08:22:38.804Z,2.54
2023-03-15T08:25:06.118Z,2.59
2023-03-15T08:27:32.717Z,2.66
2023-03-15T08:29:59.597Z,3.04
2023-03-15T08:32:26.227Z,3.04
2023-03-15T08:34:53.296Z,2.76
2023-03-15T08:37:21.058Z,3.09
2023-03-15T08:39:47.608Z,3.30
2023-03-15T08:42:14.422Z,3.65
2023-03-15T08:44:41.300Z,3.91
2023-03-15T08:47:08.416Z,3.96
2023-03-15T08:49:35.227Z,3.51
2023-03-15T08:52:01.883Z,3.03
2023-03-15T08:54:28.392Z,3.03
2023-03-15T08:56:54.987Z,3.48
2023-03-15T08:59:31.415Z,4.03
2023-03-15T09:02:02.151Z,3.97
2023-03-15T09:04:28.854Z,4.09
2023-03-15T09:06:55.708Z,4.57
2023-03-15T09:09:22.281Z,4.63
2023-03-15T09:11:49.335Z,4.62
2023-03-15T09:14:16.004Z,5.12
2023-03-15T09:16:43.099Z,4.84
2023-03-15T09:19:09.701Z,5.33
2023-03-15T09:21:36.241Z,5.68
2023-03-15T09:24:02.950Z,6.03
2023-03-15T09:26:29.504Z,6.16
2023-03-15T09:28:56.151Z,6.56
2023-03-15T09:31:22.852Z,6.37
2023-03-15T09:33:49.736Z,6.11
2023-03-15T09:36:16.294Z,6.20
2023-03-15T09:38:44.173Z,6.57
2023-03-15T09:41:34.051Z,6.63
2023-03-15T09:44:29.016Z,6.94
2023-03-15T09:47:24.889Z,6.40
2023-03-15T09:50:03.477Z,6.49
2023-03-15T09:52:54.975Z,7.19
2023-03-15T09:55:21.694Z,7.27
2023-03-15T09:58:03.291Z,6.48
2023-03-15T10:00:48.612Z,6.90
2023-03-15T10:04:03.523Z,6.43
2023-03-15T10:06:36.481Z,6.61
2023-03-15T10:09:12.561Z,6.59
2023-03-15T10:12:00.797Z,7.02
2023-03-15T10:15:00.228Z,7.53
2023-03-15T10:17:53.282Z,7.17
2023-03-15T10:20:26.426Z,7.71
2023-03-15T10:23:16.647Z,7.83
2023-03-15T10:25:44.569Z,8.15
2023-03-15T10:28:24.482Z,8.17
2023-03-15T10:30:51.915Z,7.52
2023-03-15T10:33:37.638Z,8.14
2023-03-15T10:36:15.957Z,8.60
2023-03-15T10:38:43.624Z,8.94
2023-03-15T10:41:17.816Z,9.42
2023-03-15T10:44:17.091Z,9.09
2023-03-15T10:47:22.989Z,9.50
2023-03-15T10:49:55.068Z,8.80
2023-03-15T10:52:41.691Z,9.40
2023-03-15T10:55:16.939Z,9.66
2023-03-15T10:57:55.374Z,9.75
2023-03-15T11:00:36.818Z,11.04
2023-03-15T11:03:08.163Z,11.83
2023-03-15T11:05:49.823Z,9.70
2023-03-15T11:08:19.570Z,9.88
2023-03-15T11:10:54.457Z,10.38
2023-03-15T11:13:23.831Z,10.63
2023-03-15T11:16:03.691Z,11.01
2023-03-15T11:18:38.014Z,10.86
2023-03-15T11:21:17.823Z,11.03
2023-03-15T11:23:49.998Z,10.90
2023-03-15T11:30:16.086Z,9.73
2023-03-15T11:34:51.730Z,9.52
2023-03-15T11:36:32.014Z,11.01
2023-03-15T11:39:03.294Z,11.32
2023-03-15T11:41:51.373Z,11.45
2023-03-15T11:44:20.882Z,11.47
2023-03-15T11:47:16.631Z,11.50
2023-03-15T11:49:52.049Z,10.02
2023-03-15T11:52:22.157Z,9.22
2023-03-15T11:54:50.110Z,8.83
2023-03-15T11:57:28.829Z,10.82
2023-03-15T11:59:57.314Z,11.20
2023-03-15T12:02:24.294Z,12.08
2023-03-15T12:04:52.602Z,12.57
2023-03-15T12:07:19.596Z,12.76
2023-03-15T12:09:52.279Z,11.22
2023-03-15T12:12:24.831Z,9.70
2023-03-15T12:15:16.026Z,9.02
2023-03-15T12:17:57.496Z,8.25
2023-03-15T12:20:42.839Z,10.02
2023-03-15T12:23:12.614Z,9.85
2023-03-15T12:25:55.086Z,10.05
2023-03-15T12:28:33.985Z,11.67
2023-03-15T12:31:04.183Z,10.44
2023-03-15T12:33:33.053Z,9.87
2023-03-15T12:36:05.869Z,9.22
2023-03-15T12:38:38.367Z,9.19
2023-03-15T12:41:10.135Z,8.83
2023-03-15T12:43:44.365Z,8.08
2023-03-15T12:46:38.819Z,7.73
2023-03-15T12:49:28.156Z,7.28
2023-03-15T12:52:23.966Z,7.21
2023-03-15T12:54:58.437Z,7.38
2023-03-15T12:57:30.332Z,7.14
2023-03-15T13:00:37.764Z,7.63
2023-03-15T13:03:16.422Z,7.80
2023-03-15T13:06:08.544Z,7.43
2023-03-15T13:08:53.556Z,7.60
2023-03-15T13:11:29.117Z,7.23
2023-03-15T13:14:17.071Z,7.27
2023-03-15T13:16:58.145Z,7.23
2023-03-15T13:19:32.977Z,6.94
2023-03-15T13:22:27.260Z,6.70
2023-03-15T13:25:04.881Z,6.40
2023-03-15T13:27:41.466Z,6.13
2023-03-15T13:30:30.395Z,6.29
2023-03-15T13:33:05.416Z,6.16
2023-03-15T13:35:33.087Z,6.19
2023-03-15T13:38:08.384Z,6.11
2023-03-15T13:40:35.220Z,6.13
2023-03-15T13:43:02.311Z,6.28
2023-03-15T13:45:28.919Z,6.28
2023-03-15T13:47:55.697Z,6.26
2023-03-15T13:50:22.632Z,6.05
2023-03-15T13:52:49.806Z,5.95
2023-03-15T13:55:22.403Z,6.05
2023-03-15T13:57:58.216Z,5.92
2023-03-15T14:00:26.476Z,5.97
2023-03-15T14:03:00.647Z,5.89
2023-03-15T14:05:31.454Z,5.68
2023-03-15T14:08:00.087Z,5.65
2023-03-15T14:10:39.518Z,5.85
2023-03-15T14:13:25.112Z,5.79
2023-03-15T14:15:58.115Z,5.65
2023-03-15T14:18:45.066Z,5.65
2023-03-15T14:21:21.725Z,5.59
2023-03-15T14:23:49.659Z,5.55
2023-03-15T14:26:22.759Z,5.44
2023-03-15T14:29:18.528Z,5.64
2023-03-15T14:31:50.778Z,5.57
2023-03-15T14:34:25.247Z,5.61
2023-03-15T14:36:55.699Z,5.80
2023-03-15T14:39:27.784Z,6.00
2023-03-15T14:41:54.516Z,5.92
2023-03-15T14:44:21.495Z,5.74
2023-03-15T14:46:48.977Z,5.91
2023-03-15T14:49:28.926Z,5.74
2023-03-15T14:52:01.449Z,5.57
2023-03-15T14:54:33.611Z,5.65
2023-03-15T14:57:00.205Z,5.50
2023-03-15T14:59:27.028Z,5.59
2023-03-15T15:01:57.097Z,5.66
2023-03-15T15:04:25.375Z,5.84
2023-03-15T15:06:52.216Z,5.86
2023-03-15T15:09:23.792Z,6.01
2023-03-15T15:11:50.981Z,5.79
2023-03-15T15:14:18.404Z,5.85
2023-03-15T15:16:45.853Z,5.86
2023-03-15T15:19:12.809Z,5.68
2023-03-15T15:21:40.503Z,5.77
2023-03-15T15:24:15.829Z,5.70
2023-03-15T15:26:43.934Z,5.70
2023-03-15T15:29:14.134Z,5.86
2023-03-15T15:31:41.778Z,5.95
2023-03-15T15:34:09.463Z,5.93
2023-03-15T15:36:39.659Z,5.77
2023-03-15T15:39:26.183Z,5.72
2023-03-15T15:41:53.409Z,5.55
2023-03-15T15:44:22.114Z,5.68
2023-03-15T15:46:48.737Z,5.53
2023-03-15T15:49:15.501Z,5.24
2023-03-15T15:51:49.423Z,5.09
2023-03-15T15:54:22.872Z,5.10
2023-03-15T15:56:52.263Z,5.20
2023-03-15T15:59:19.573Z,5.18
2023-03-15T16:02:00.060Z,5.28
2023-03-15T16:04:28.424Z,5.40
2023-03-15T16:06:59.454Z,5.28
2023-03-15T16:09:28.748Z,5.17
2023-03-15T16:11:55.494Z,5.16
2023-03-15T16:14:22.068Z,5.01
2023-03-15T16:16:48.674Z,4.98
2023-03-15T16:19:15.445Z,4.90
2023-03-15T16:21:47.459Z,4.86
2023-03-15T16:24:14.286Z,4.52
2023-03-15T16:26:41.492Z,4.55
2023-03-15T16:29:24.391Z,4.40
2023-03-15T16:31:51.158Z,4.55
2023-03-15T16:34:19.529Z,4.62
2023-03-15T16:36:49.835Z,4.46
2023-03-15T16:39:18.505Z,4.23
2023-03-15T16:41:45.523Z,4.27
2023-03-15T16:44:14.065Z,4.20
2023-03-15T16:46:41.026Z,3.95
2023-03-15T16:49:08.157Z,3.98
2023-03-15T16:51:37.764Z,3.99
2023-03-15T16:54:19.460Z,3.88
2023-03-15T16:56:49.035Z,3.94
2023-03-15T16:59:17.839Z,3.90
2023-03-15T17:01:45.575Z,3.76
2023-03-15T17:04:13.962Z,4.01
2023-03-15T17:06:42.070Z,3.97
2023-03-15T17:09:13.983Z,3.76
2023-03-15T17:11:41.814Z,3.67
2023-03-15T17:14:14.960Z,3.62
2023-03-15T17:16:41.515Z,3.58
2023-03-15T17:19:13.150Z,3.61
2023-03-15T17:21:40.409Z,3.63
2023-03-15T17:24:09.430Z,3.75
2023-03-15T17:26:36.756Z,3.74
2023-03-15T17:29:04.838Z,3.64
2023-03-15T17:31:33.789Z,3.59
2023-03-15T17:34:00.649Z,3.53
2023-03-15T17:36:32.315Z,3.46
2023-03-15T17:38:59.113Z,3.40
2023-03-15T17:41:31.663Z,3.36
2023-03-15T17:43:58.848Z,3.31
2023-03-15T17:46:33.208Z,3.25
2023-03-15T17:49:01.142Z,3.17
2023-03-15T17:51:31.368Z,3.13
2023-03-15T17:53:59.737Z,3.17
2023-03-15T17:56:28.099Z,3.12
2023-03-15T17:58:54.963Z,3.13
2023-03-15T18:01:27.868Z,3.17
2023-03-15T18:03:55.813Z,3.15
2023-03-15T18:06:23.252Z,3.14
2023-03-15T18:08:51.080Z,3.15
2023-03-15T18:11:26.142Z,3.14
2023-03-15T18:13:53.932Z,3.09
2023-03-15T18:16:20.780Z,3.09
2023-03-15T18:18:47.571Z,3.11
2023-03-15T18:21:17.697Z,3.06
2023-03-15T18:23:44.483Z,3.04
2023-03-15T18:26:12.553Z,3.02
2023-03-15T18:28:40.270Z,3.04
2023-03-15T18:31:26.089Z,3.02
2023-03-15T18:33:53.495Z,3.02
2023-03-15T18:36:20.138Z,3.01
2023-03-15T18:38:46.864Z,2.98
2023-03-15T18:41:20.720Z,2.99
2023-03-15T18:43:50.036Z,3.07
2023-03-15T18:46:19.601Z,3.08
2023-03-15T18:48:47.065Z,3.06
2023-03-15T18:51:15.160Z,3.06
2023-03-15T18:53:43.259Z,3.03
2023-03-15T18:56:24.305Z,2.99
2023-03-15T18:58:52.898Z,2.99
2023-03-15T19:01:24.747Z,2.96
2023-03-15T19:03:52.649Z,2.96
2023-03-15T19:06:19.819Z,2.90
2023-03-15T19:08:46.663Z,2.94
2023-03-15T19:11:13.418Z,2.88
2023-03-15T19:13:40.001Z,2.85
2023-03-15T19:16:06.950Z,2.88
2023-03-15T19:18:34.787Z,2.89
2023-03-15T19:21:02.658Z,2.81
2023-03-15T19:23:29.568Z,2.77
2023-03-15T19:25:56.247Z,2.79
2023-03-15T19:28:22.841Z,2.73
2023-03-15T19:30:49.723Z,2.69
2023-03-15T19:33:16.590Z,2.71
2023-03-15T19:35:43.259Z,2.68
2023-03-15T19:38:10.141Z,2.71
2023-03-15T19:40:37.560Z,2.72
2023-03-15T19:43:04.350Z,2.68
2023-03-15T19:45:31.084Z,2.62
2023-03-15T19:47:57.759Z,2.57
2023-03-15T19:50:24.422Z,2.53
2023-03-15T19:52:51.088Z,2.52
2023-03-15T19:55:20.221Z,2.61
2023-03-15T19:57:47.572Z,2.54
2023-03-15T20:00:16.288Z,2.50
2023-03-15T20:02:44.178Z,2.42
2023-03-15T20:05:13.436Z,2.45
2023-03-15T20:07:40.452Z,2.48
2023-03-15T20:10:08.682Z,2.50
2023-03-15T20:12:36.532Z,2.53
2023-03-15T20:15:06.114Z,2.59
2023-03-15T20:17:32.864Z,2.51
2023-03-15T20:19:59.438Z,2.45
2023-03-15T20:22:26.106Z,2.45
2023-03-15T20:24:52.658Z,2.39
2023-03-15T20:27:20.585Z,2.32
2023-03-15T20:29:48.198Z,2.30
2023-03-15T20:32:14.768Z,2.32
2023-03-15T20:34:41.642Z,2.29
2023-03-15T20:37:08.459Z,2.14
2023-03-15T20:39:35.441Z,2.26
2023-03-15T20:42:02.103Z,2.31
2023-03-15T20:44:28.795Z,2.17
2023-03-15T20:46:58.778Z,2.15
2023-03-15T20:49:26.956Z,2.04
2023-03-15T20:51:55.086Z,2.13
2023-03-15T20:54:21.610Z,1.92
2023-03-15T20:56:48.451Z,1.71
2023-03-15T20:59:15.120Z,1.57
2023-03-15T21:01:41.668Z,1.60
2023-03-15T21:04:08.579Z,1.63
2023-03-15T21:06:35.211Z,1.56
2023-03-15T21:09:01.847Z,1.50
2023-03-15T21:11:28.573Z,1.52
2023-03-15T21:13:55.265Z,1.50
2023-03-15T21:16:22.017Z,1.52
2023-03-15T21:18:51.897Z,1.50
2023-03-15T21:21:19.524Z,1.34
2023-03-15T21:23:46.075Z,1.30
2023-03-15T21:26:14.000Z,1.31
2023-03-15T21:28:42.807Z,1.25
2023-03-15T21:31:09.912Z,1.23
2023-03-15T21:33:36.761Z,1.14
2023-03-15T21:36:03.952Z,1.07
2023-03-15T21:38:32.545Z,0.98
2023-03-15T21:41:00.114Z,0.90
2023-03-15T21:43:28.345Z,0.81
2023-03-15T21:45:55.905Z,0.72
2023-03-15T21:48:22.988Z,0.79
2023-03-15T21:50:53.478Z,0.86
2023-03-15T21:53:21.149Z,1.02
2023-03-15T21:55:47.787Z,1.06
2023-03-15T21:58:14.500Z,1.07
2023-03-15T22:00:41.603Z,1.03
2023-03-15T22:03:08.723Z,1.08
2023-03-15T22:05:35.765Z,1.16
2023-03-15T22:08:02.514Z,1.17
2023-03-15T22:10:29.082Z,1.21
2023-03-15T22:12:55.659Z,1.21
2023-03-15T22:15:22.601Z,1.19
2023-03-15T22:17:49.205Z,1.21
2023-03-15T22:20:16.875Z,1.00
2023-03-15T22:22:45.100Z,0.83
2023-03-15T22:25:12.077Z,0.81
2023-03-15T22:27:38.972Z,0.89
2023-03-15T22:30:07.322Z,0.86
2023-03-15T22:32:34.302Z,0.84
2023-03-15T22:35:00.926Z,0.70
2023-03-15T22:37:27.612Z,0.73
2023-03-15T22:39:54.192Z,0.76
2023-03-15T22:42:21.029Z,0.85
2023-03-15T22:44:47.622Z,0.92
2023-03-15T22:47:14.294Z,0.92
2023-03-15T22:49:41.249Z,0.84
2023-03-15T22:52:07.982Z,0.84
2023-03-15T22:54:34.758Z,0.82
2023-03-15T22:57:01.515Z,0.80
2023-03-15T22:59:29.060Z,0.87
2023-03-15T23:01:57.014Z,0.91
2023-03-15T23:04:24.069Z,0.94
2023-03-15T23:06:51.738Z,0.97
2023-03-15T23:09:18.783Z,0.97
2023-03-15T23:11:45.724Z,1.00
2023-03-15T23:14:12.256Z,1.05
2023-03-15T23:16:39.140Z,0.98
2023-03-15T23:19:05.940Z,1.00
2023-03-15T23:21:32.589Z,0.97
2023-03-15T23:23:59.378Z,0.91
2023-03-15T23:26:26.244Z,0.86
2023-03-15T23:28:54.067Z,0.87
2023-03-15T23:31:21.412Z,0.85
2023-03-15T23:33:48.010Z,0.83
2023-03-15T23:36:14.965Z,0.83
2023-03-15T23:38:41.606Z,0.86
2023-03-15T23:41:08.327Z,0.90
2023-03-15T23:43:35.047Z,0.91
2023-03-15T23:46:04.817Z,0.93
2023-03-15T23:48:34.508Z,0.97
2023-03-15T23:51:04.512Z,0.97
2023-03-15T23:53:32.094Z,0.91
2023-03-15T23:55:59.045Z,0.84
2023-03-15T23:58:25.867Z,0.85
